Aviation Digital Data Service (ADDS)

Output produced by TAFs form (1224 UTC 24 July 2014)
found at http://www.aviationweather.gov/adds/tafs/
 
KPOU 241132Z 2412/2512 05003KT P6SM SCT015 BKN060 OVC070 
     FM241500 35007KT P6SM SCT050 
     FM250200 VRB03KT P6SM SKC